Time;durP1;ratioP1;P1;durP2;ratioP2;P2;SDS_P1;SDS_P2;PMS_P1;PMS_P2;Temp;Humidity;BMP_temperature;BMP_pressure;BME280_temperature;BME280_humidity;BME280_pressure;Samples;Min_cycle;Max_cycle;Signal;HPM_P1;HPM_P2
2021/11/25 00:01:05;;;;;;;74.27;30.70;;;-0.70;99.90;;;;;;4458368;28;660584;-72
2021/11/25 00:03:54;;;;;;;64.70;28.87;;;-0.60;99.90;;;;;;4435663;28;660712;-72
2021/11/25 00:06:42;;;;;;;66.47;27.33;;;-0.60;99.90;;;;;;4434958;28;659707;-72
2021/11/25 00:09:29;;;;;;;71.83;27.17;;;-0.60;99.90;;;;;;4457121;28;659668;-72
2021/11/25 00:12:17;;;;;;;61.40;25.90;;;-0.50;99.90;;;;;;4438519;28;659829;-72
2021/11/25 00:15:05;;;;;;;51.83;23.50;;;-0.50;99.90;;;;;;4455439;28;659802;-72
2021/11/25 00:17:54;;;;;;;50.40;21.15;;;-0.50;99.90;;;;;;4438579;28;660658;-73
2021/11/25 00:20:42;;;;;;;53.77;23.80;;;-0.50;99.90;;;;;;4437147;28;659610;-72
2021/11/25 00:23:29;;;;;;;53.67;22.33;;;-0.50;99.90;;;;;;4458203;28;659903;-72
2021/11/25 00:26:17;;;;;;;41.13;18.87;;;-0.50;99.90;;;;;;4437714;28;660315;-72
2021/11/25 00:29:05;;;;;;;42.43;18.57;;;-0.50;99.90;;;;;;4458830;28;659493;-73
2021/11/25 00:31:53;;;;;;;38.93;17.97;;;-0.40;99.90;;;;;;4435894;28;660773;-72
2021/11/25 00:34:42;;;;;;;49.25;21.35;;;-0.50;99.90;;;;;;4445720;28;659382;-72
2021/11/25 00:37:30;;;;;;;38.73;17.70;;;-0.40;99.90;;;;;;4456676;28;659687;-72
2021/11/25 00:40:18;;;;;;;41.50;17.30;;;-0.50;99.90;;;;;;4437215;28;660458;-72
2021/11/25 00:43:06;;;;;;;40.00;16.70;;;-0.40;99.90;;;;;;4439892;28;659652;-72
2021/11/25 00:45:54;;;;;;;41.67;17.53;;;-0.50;99.90;;;;;;4458705;28;660286;-72
2021/11/25 00:48:41;;;;;;;41.90;16.80;;;-0.50;99.90;;;;;;4440214;28;659484;-72
2021/11/25 00:51:30;;;;;;;37.87;16.50;;;-0.50;99.90;;;;;;4456397;28;659718;-72
2021/11/25 00:54:18;;;;;;;36.27;16.70;;;-0.50;99.90;;;;;;4429375;28;659995;-72
2021/11/25 00:57:06;;;;;;;37.13;17.13;;;-0.50;99.90;;;;;;4437154;28;659624;-72
2021/11/25 00:59:54;;;;;;;37.13;17.57;;;-0.50;99.90;;;;;;4459296;28;659982;-72
2021/11/25 01:02:41;;;;;;;38.90;17.63;;;-0.50;99.90;;;;;;4434681;28;660973;-72
2021/11/25 01:05:29;;;;;;;36.37;16.40;;;-0.50;99.90;;;;;;4456215;28;659782;-72
2021/11/25 01:08:18;;;;;;;43.90;16.87;;;-0.60;99.90;;;;;;4435736;28;659812;-72
2021/11/25 01:11:07;;;;;;;36.90;15.43;;;-0.60;99.90;;;;;;4436707;28;660171;-72
2021/11/25 01:13:54;;;;;;;37.67;15.83;;;-0.60;99.90;;;;;;4458708;28;661389;-72
2021/11/25 01:16:42;;;;;;;47.73;18.60;;;-0.60;99.90;;;;;;4435564;28;659543;-72
2021/11/25 01:19:29;;;;;;;41.13;17.33;;;-0.60;99.90;;;;;;4456065;28;659416;-72
2021/11/25 01:22:17;;;;;;;35.70;15.10;;;-0.60;99.90;;;;;;4439943;28;660309;-72
2021/11/25 01:25:07;;;;;;;35.85;15.27;;;-0.60;99.90;;;;;;4458927;28;659421;-72
2021/11/25 01:27:55;;;;;;;31.00;15.27;;;-0.60;99.90;;;;;;4424593;28;659957;-72
2021/11/25 01:30:44;;;;;;;29.87;14.87;;;-0.60;99.90;;;;;;4462102;28;659718;-72
2021/11/25 01:33:32;;;;;;;35.50;15.07;;;-0.60;99.90;;;;;;4437897;28;659706;-72
2021/11/25 01:36:19;;;;;;;35.40;16.60;;;-0.60;99.90;;;;;;4461945;28;659709;-72
2021/11/25 01:39:07;;;;;;;37.53;16.07;;;-0.60;99.90;;;;;;4435855;28;659596;-72
2021/11/25 01:41:56;;;;;;;38.37;16.80;;;-0.60;99.90;;;;;;4458379;28;660101;-72
2021/11/25 01:44:43;;;;;;;34.67;15.83;;;-0.60;99.90;;;;;;4433127;28;660225;-73
2021/11/25 01:47:31;;;;;;;34.90;13.83;;;-0.60;99.90;;;;;;4434068;28;660232;-72
2021/11/25 01:50:19;;;;;;;32.77;14.33;;;-0.60;99.90;;;;;;4455876;28;660245;-72
2021/11/25 01:53:07;;;;;;;30.07;13.63;;;-0.70;99.90;;;;;;4438857;28;659729;-72
2021/11/25 01:55:54;;;;;;;32.03;13.87;;;-0.70;99.90;;;;;;4456051;28;659407;-72
2021/11/25 01:58:43;;;;;;;35.43;14.70;;;-0.70;99.90;;;;;;4437522;28;659651;-72
2021/11/25 02:01:34;;;;;;;32.30;15.30;;;-0.70;99.90;;;;;;4437761;28;659804;-72
2021/11/25 02:04:23;;;;;;;34.90;14.73;;;-0.70;99.90;;;;;;4432501;28;660202;-72
2021/11/25 02:07:11;;;;;;;37.73;17.03;;;-0.70;99.90;;;;;;4439439;28;659936;-72
2021/11/25 02:09:58;;;;;;;39.33;17.60;;;-0.70;99.90;;;;;;4452489;28;660277;-72
2021/11/25 02:12:46;;;;;;;39.53;16.80;;;-0.70;99.90;;;;;;4437029;28;659914;-72
2021/11/25 02:15:38;;;;;;;36.40;16.13;;;-0.70;99.90;;;;;;4456460;28;659979;-73
2021/11/25 02:18:28;;;;;;;47.80;18.80;;;-0.80;99.90;;;;;;4416965;28;659819;-72
2021/11/25 02:21:17;;;;;;;34.90;16.10;;;-0.80;99.90;;;;;;4439078;28;660613;-72
2021/11/25 02:24:05;;;;;;;42.77;17.40;;;-0.80;99.90;;;;;;4459144;28;659471;-72
2021/11/25 02:26:53;;;;;;;42.53;18.73;;;-0.80;99.90;;;;;;4433900;28;660565;-72
2021/11/25 02:29:41;;;;;;;42.75;17.65;;;-0.90;99.90;;;;;;4442296;28;659616;-72
2021/11/25 02:32:31;;;;;;;48.63;18.53;;;-0.90;99.90;;;;;;4451625;28;660169;-72
2021/11/25 02:35:20;;;;;;;43.50;17.77;;;-0.90;99.90;;;;;;4433462;28;660694;-72
2021/11/25 02:38:09;;;;;;;38.37;17.20;;;-0.90;99.90;;;;;;4434752;28;660354;-72
2021/11/25 02:40:57;;;;;;;44.10;18.37;;;-0.90;99.90;;;;;;4439973;28;660067;-72
2021/11/25 02:43:45;;;;;;;40.13;17.07;;;-1.00;99.90;;;;;;4452684;28;659395;-72
2021/11/25 02:46:33;;;;;;;41.28;17.15;;;-1.00;99.90;;;;;;4437483;28;660499;-72
2021/11/25 02:49:20;;;;;;;40.13;17.27;;;-1.00;99.90;;;;;;4449740;28;660497;-72
2021/11/25 02:52:08;;;;;;;37.67;16.03;;;-1.00;99.90;;;;;;4456443;28;659776;-73
2021/11/25 02:54:57;;;;;;;39.23;16.67;;;-1.10;99.90;;;;;;4438075;28;660383;-72
2021/11/25 02:57:45;;;;;;;36.30;16.00;;;-1.10;99.90;;;;;;4453537;28;659530;-72
2021/11/25 03:00:37;;;;;;;50.00;17.50;;;-1.10;99.90;;;;;;4457358;28;661180;-72
2021/11/25 03:03:26;;;;;;;40.77;17.77;;;-1.10;99.90;;;;;;4451793;28;659908;-72
2021/11/25 03:06:13;;;;;;;38.50;16.63;;;-1.10;99.90;;;;;;4458577;28;660571;-73
2021/11/25 03:09:01;;;;;;;37.13;16.30;;;-1.00;99.90;;;;;;4438620;28;659577;-72
2021/11/25 03:11:53;;;;;;;42.13;16.87;;;-1.10;99.90;;;;;;4457797;28;660454;-72
2021/11/25 03:14:40;;;;;;;39.95;16.88;;;-1.10;99.90;;;;;;4415225;28;659545;-72
2021/11/25 03:17:28;;;;;;;37.30;16.17;;;-1.20;99.90;;;;;;4455655;28;660605;-73
2021/11/25 03:20:16;;;;;;;39.13;17.40;;;-1.20;99.90;;;;;;4437667;28;659709;-72
2021/11/25 03:23:03;;;;;;;38.37;16.33;;;-1.20;99.90;;;;;;4459623;28;660150;-72
2021/11/25 03:25:51;;;;;;;41.80;17.00;;;-1.20;99.90;;;;;;4438895;28;659846;-72
2021/11/25 03:28:43;;;;;;;40.53;17.60;;;-1.20;99.90;;;;;;4457598;28;660091;-72
2021/11/25 03:31:32;;;;;;;43.30;18.10;;;-1.20;99.90;;;;;;4411547;28;659748;-72
2021/11/25 03:34:20;;;;;;;48.00;19.30;;;-1.30;99.90;;;;;;4454443;28;659464;-72
2021/11/25 03:37:07;;;;;;;50.57;20.30;;;-1.30;99.90;;;;;;4436200;28;661348;-73
2021/11/25 03:39:55;;;;;;;57.77;23.60;;;-1.30;99.90;;;;;;4456215;28;659772;-73
2021/11/25 03:42:42;;;;;;;74.47;27.07;;;-1.30;99.90;;;;;;4438832;28;660010;-72
2021/11/25 03:45:32;;;;;;;69.80;28.03;;;-1.30;99.90;;;;;;4445286;28;659932;-72
2021/11/25 03:48:22;;;;;;;72.88;29.63;;;-1.30;99.90;;;;;;4455223;28;660016;-72
2021/11/25 03:51:10;;;;;;;58.23;23.73;;;-1.30;99.90;;;;;;4435020;28;659410;-72
2021/11/25 03:53:58;;;;;;;45.13;19.93;;;-1.30;99.90;;;;;;4432923;28;660102;-72
2021/11/25 03:56:46;;;;;;;52.33;19.40;;;-1.30;99.90;;;;;;4437040;28;659786;-72
2021/11/25 03:59:33;;;;;;;42.27;19.30;;;-1.30;99.90;;;;;;4465898;28;660604;-72
2021/11/25 04:02:23;;;;;;;48.53;18.87;;;-1.30;99.90;;;;;;4443141;28;659909;-72
2021/11/25 04:05:11;;;;;;;46.80;18.73;;;-1.30;99.90;;;;;;4441325;28;660824;-72
2021/11/25 04:07:58;;;;;;;46.67;20.17;;;-1.20;99.90;;;;;;4462071;28;660413;-72
2021/11/25 04:10:46;;;;;;;43.13;18.03;;;-1.10;99.90;;;;;;4442047;28;660175;-72
2021/11/25 04:13:34;;;;;;;47.80;19.50;;;-1.10;99.90;;;;;;4459115;28;660334;-73
2021/11/25 04:16:21;;;;;;;47.70;19.13;;;-1.20;99.90;;;;;;4443125;28;659729;-72
2021/11/25 04:19:10;;;;;;;49.37;19.37;;;-1.20;99.90;;;;;;4455444;28;659773;-72
2021/11/25 04:21:58;;;;;;;46.97;19.60;;;-1.30;99.90;;;;;;4437001;28;660552;-72
2021/11/25 04:24:46;;;;;;;48.53;20.03;;;-1.20;99.90;;;;;;4439952;28;659709;-72
2021/11/25 04:27:33;;;;;;;42.13;19.43;;;-1.20;99.90;;;;;;4462449;28;660621;-72
2021/11/25 04:30:31;;;;;;;47.40;19.87;;;-1.20;99.90;;;;;;4442372;28;659450;-72
2021/11/25 04:36:25;;;;;;;46.83;18.70;;;-1.30;99.90;;;;;;4439098;28;660540;-72
2021/11/25 04:39:13;;;;;;;46.55;17.70;;;-1.30;99.90;;;;;;4441424;28;660298;-72
2021/11/25 04:42:01;;;;;;;48.45;19.35;;;-1.30;99.90;;;;;;4437377;28;660102;-73
2021/11/25 04:44:48;;;;;;;41.93;18.23;;;-1.30;99.90;;;;;;4457739;28;661870;-72
2021/11/25 04:47:36;;;;;;;48.17;18.43;;;-1.20;99.90;;;;;;4439289;28;659491;-72
2021/11/25 04:50:24;;;;;;;47.67;18.40;;;-1.30;99.90;;;;;;4461753;28;659829;-72
2021/11/25 04:53:13;;;;;;;42.57;18.53;;;-1.30;99.90;;;;;;4440843;28;659570;-73
2021/11/25 04:56:01;;;;;;;47.23;17.40;;;-1.30;99.90;;;;;;4439410;28;659373;-73
2021/11/25 04:58:49;;;;;;;47.17;18.53;;;-1.30;99.90;;;;;;4452672;28;660107;-72
2021/11/25 05:01:36;;;;;;;51.00;18.53;;;-1.30;99.90;;;;;;4436570;28;659613;-72
2021/11/25 05:04:24;;;;;;;44.87;17.93;;;-1.30;99.90;;;;;;4454460;28;659693;-72
2021/11/25 05:07:12;;;;;;;46.87;17.37;;;-1.30;99.90;;;;;;4433765;28;660015;-73
2021/11/25 05:10:01;;;;;;;39.70;16.03;;;-1.30;99.90;;;;;;4457379;28;659327;-72
2021/11/25 05:12:49;;;;;;;43.83;17.37;;;-1.30;99.90;;;;;;4433472;28;660861;-72
2021/11/25 05:15:37;;;;;;;41.90;17.60;;;-1.30;99.90;;;;;;4433864;28;659825;-72
2021/11/25 05:18:24;;;;;;;48.33;18.60;;;-1.30;99.90;;;;;;4456083;28;660337;-73
2021/11/25 05:21:12;;;;;;;44.83;19.17;;;-1.30;99.90;;;;;;4440214;28;660904;-72
2021/11/25 05:24:00;;;;;;;45.03;18.00;;;-1.30;99.90;;;;;;4455803;28;659701;-72
2021/11/25 05:26:49;;;;;;;44.10;17.53;;;-1.40;99.90;;;;;;4431294;28;660758;-72
2021/11/25 05:29:37;;;;;;;45.55;19.23;;;-1.40;99.90;;;;;;4441373;28;659690;-73
2021/11/25 05:32:24;;;;;;;61.30;22.27;;;-1.40;99.90;;;;;;4455678;28;659375;-73
2021/11/25 05:35:12;;;;;;;37.77;16.30;;;-1.40;99.90;;;;;;4435533;28;659998;-72
2021/11/25 05:38:00;;;;;;;66.33;25.83;;;-1.40;99.90;;;;;;4457640;28;659797;-73
2021/11/25 05:40:48;;;;;;;68.47;23.20;;;-1.40;99.90;;;;;;4433064;28;660406;-72
2021/11/25 05:43:37;;;;;;;57.90;21.98;;;-1.40;99.90;;;;;;4439341;28;659684;-73
2021/11/25 05:46:25;;;;;;;45.97;17.93;;;-1.40;99.90;;;;;;4459165;28;659547;-72
2021/11/25 05:49:13;;;;;;;57.42;22.40;;;-1.40;99.90;;;;;;4434035;28;660631;-73
2021/11/25 05:52:01;;;;;;;43.77;17.10;;;-1.40;99.90;;;;;;4437422;27;659723;-72
2021/11/25 05:54:49;;;;;;;49.40;20.10;;;-1.50;99.90;;;;;;4454096;28;659596;-72
2021/11/25 05:57:37;;;;;;;40.77;18.80;;;-1.50;99.90;;;;;;4429734;28;660033;-72
2021/11/25 06:00:26;;;;;;;45.30;19.37;;;-1.50;99.90;;;;;;4455804;28;659095;-73
2021/11/25 06:03:14;;;;;;;37.10;17.03;;;-1.50;99.90;;;;;;4433535;28;660468;-72
2021/11/25 06:06:01;;;;;;;42.33;17.83;;;-1.60;99.90;;;;;;4432583;28;659965;-72
2021/11/25 06:08:49;;;;;;;43.17;17.67;;;-1.60;99.90;;;;;;4458546;28;659434;-72
2021/11/25 06:11:37;;;;;;;42.03;17.47;;;-1.60;99.90;;;;;;4437473;28;659683;-72
2021/11/25 06:14:24;;;;;;;45.30;17.73;;;-1.60;99.90;;;;;;4457850;28;659031;-73
2021/11/25 06:17:13;;;;;;;53.90;21.77;;;-1.60;99.90;;;;;;4441766;28;661085;-73
2021/11/25 06:20:03;;;;;;;51.67;20.27;;;-1.60;99.90;;;;;;4439583;28;659444;-72
2021/11/25 06:22:52;;;;;;;48.10;19.33;;;-1.50;99.90;;;;;;4442693;28;659988;-72
2021/11/25 06:25:40;;;;;;;106.40;28.03;;;-1.50;99.90;;;;;;4461660;28;659989;-72
2021/11/25 06:28:28;;;;;;;112.00;30.50;;;-1.50;99.90;;;;;;4432430;28;661694;-72
2021/11/25 06:31:16;;;;;;;127.73;36.20;;;-1.60;99.90;;;;;;4439597;28;660620;-72
2021/11/25 06:34:05;;;;;;;126.37;39.70;;;-1.60;99.90;;;;;;4460642;28;661464;-72
2021/11/25 06:36:52;;;;;;;98.13;34.30;;;-1.60;99.90;;;;;;4430297;28;662074;-72
2021/11/25 06:39:40;;;;;;;149.67;49.27;;;-1.60;99.90;;;;;;4456320;28;660122;-72
2021/11/25 06:42:28;;;;;;;175.30;55.30;;;-1.60;99.90;;;;;;4460339;28;661119;-72
2021/11/25 06:45:16;;;;;;;112.03;37.40;;;-1.60;99.90;;;;;;4434620;28;660565;-73
2021/11/25 06:48:04;;;;;;;185.10;64.05;;;-1.70;99.90;;;;;;4457043;28;661884;-73
2021/11/25 06:50:53;;;;;;;180.43;65.97;;;-1.70;99.90;;;;;;4434516;28;660683;-72
2021/11/25 06:53:41;;;;;;;146.02;55.40;;;-1.70;99.90;;;;;;4439279;28;660788;-72
2021/11/25 06:56:28;;;;;;;136.83;50.87;;;-1.60;99.90;;;;;;4457229;28;662384;-73
2021/11/25 06:59:16;;;;;;;115.60;43.20;;;-1.60;99.90;;;;;;4435512;28;660891;-72
2021/11/25 07:02:04;;;;;;;104.27;40.30;;;-1.60;99.90;;;;;;4456499;28;661786;-72
2021/11/25 07:04:52;;;;;;;87.27;35.50;;;-1.50;99.90;;;;;;4437723;28;660784;-72
2021/11/25 07:07:42;;;;;;;122.40;47.33;;;-1.40;99.90;;;;;;4459744;28;659684;-73
2021/11/25 07:10:30;;;;;;;105.03;40.50;;;-1.30;99.90;;;;;;4434007;28;660560;-73
2021/11/25 07:13:17;;;;;;;90.13;37.43;;;-1.30;99.90;;;;;;4433096;28;661728;-73
2021/11/25 07:16:06;;;;;;;81.33;34.73;;;-1.20;99.90;;;;;;4457122;28;659673;-72
2021/11/25 07:18:53;;;;;;;67.80;26.23;;;-1.10;99.90;;;;;;4431233;28;659947;-73
2021/11/25 07:21:41;;;;;;;61.30;23.47;;;-1.00;99.90;;;;;;4439452;28;659954;-74
2021/11/25 07:24:30;;;;;;;53.30;22.47;;;-0.90;99.90;;;;;;4460743;28;660640;-72
2021/11/25 07:27:18;;;;;;;54.80;24.20;;;-0.80;99.90;;;;;;4427750;28;659854;-73
2021/11/25 07:30:07;;;;;;;54.80;22.37;;;-0.70;99.90;;;;;;4441182;28;659873;-73
2021/11/25 07:32:54;;;;;;;57.55;25.50;;;-0.50;99.90;;;;;;4456341;28;660506;-73
2021/11/25 07:35:43;;;;;;;45.97;20.07;;;-0.40;99.90;;;;;;4442572;28;660390;-72
2021/11/25 07:38:31;;;;;;;55.27;22.17;;;-0.30;99.90;;;;;;4437143;28;659479;-72
2021/11/25 07:41:21;;;;;;;49.30;21.60;;;-0.20;99.90;;;;;;4461479;28;659933;-73
2021/11/25 07:44:08;;;;;;;59.37;25.27;;;0.00;99.90;;;;;;4438123;28;660110;-73
2021/11/25 07:46:56;;;;;;;55.80;23.80;;;0.30;99.90;;;;;;4444688;28;658570;-73
2021/11/25 07:49:44;;;;;;;63.13;27.40;;;0.60;99.90;;;;;;4459683;28;659063;-72
2021/11/25 07:52:32;;;;;;;59.57;25.70;;;0.90;99.90;;;;;;4440657;28;658448;-72
2021/11/25 07:55:19;;;;;;;70.77;28.77;;;1.20;99.90;;;;;;4459671;28;661042;-73
2021/11/25 07:58:09;;;;;;;62.33;29.77;;;1.30;99.90;;;;;;4442026;28;659647;-73
2021/11/25 08:00:57;;;;;;;64.43;27.90;;;1.40;99.90;;;;;;4434845;28;658848;-73
2021/11/25 08:03:45;;;;;;;47.65;22.70;;;1.60;99.90;;;;;;4463057;28;658614;-73
2021/11/25 08:06:32;;;;;;;40.53;19.80;;;2.10;99.90;;;;;;4436610;28;659847;-73
2021/11/25 08:09:21;;;;;;;37.80;17.80;;;2.40;99.90;;;;;;4448308;28;658972;-73
2021/11/25 08:12:09;;;;;;;41.70;20.33;;;2.70;99.90;;;;;;4464430;28;659280;-71
2021/11/25 08:14:58;;;;;;;36.20;18.10;;;3.50;99.90;;;;;;4439356;28;658498;-72
2021/11/25 08:17:46;;;;;;;40.47;18.57;;;4.30;99.90;;;;;;4443977;28;659027;-71
2021/11/25 08:20:34;;;;;;;31.43;16.63;;;5.10;1.00;;;;;;4461880;28;659717;-72
2021/11/25 08:23:21;;;;;;;43.83;21.77;;;6.00;1.00;;;;;;4443797;28;658037;-72
2021/11/25 08:26:09;;;;;;;39.93;20.50;;;6.80;99.90;;;;;;4463424;28;658008;-72
2021/11/25 08:28:56;;;;;;;39.37;20.27;;;7.40;1.00;;;;;;4436684;28;658989;-72
2021/11/25 08:31:46;;;;;;;33.27;18.97;;;7.80;1.00;;;;;;4463003;28;657845;-71
2021/11/25 08:34:33;;;;;;;41.80;23.67;;;8.00;21.90;;;;;;4440220;28;658085;-72
2021/11/25 08:37:21;;;;;;;43.33;20.43;;;8.20;1.00;;;;;;4442093;28;658573;-72
2021/11/25 08:40:10;;;;;;;29.70;16.47;;;8.60;1.00;;;;;;4459446;28;658155;-72
2021/11/25 08:42:58;;;;;;;22.87;12.83;;;8.40;99.90;;;;;;4438840;28;658712;-72
2021/11/25 08:45:46;;;;;;;25.67;13.00;;;8.20;99.90;;;;;;4442926;28;658624;-72
2021/11/25 08:48:35;;;;;;;26.40;13.80;;;8.10;1.00;;;;;;4459212;28;659579;-72
2021/11/25 08:51:22;;;;;;;32.57;15.93;;;8.10;1.00;;;;;;4436832;28;658532;-72
2021/11/25 08:54:11;;;;;;;34.63;15.37;;;7.70;1.00;;;;;;4460443;28;657892;-71
2021/11/25 08:56:59;;;;;;;39.77;17.37;;;7.80;1.00;;;;;;4466675;28;658600;-72
2021/11/25 08:59:47;;;;;;;31.37;16.60;;;7.70;99.90;;;;;;4442392;28;657770;-72
2021/11/25 09:02:35;;;;;;;32.53;16.58;;;7.90;99.90;;;;;;4464316;28;658874;-72
2021/11/25 09:05:24;;;;;;;33.13;17.60;;;8.10;99.90;;;;;;4433235;28;659585;-71
2021/11/25 09:08:12;;;;;;;38.47;18.47;;;7.70;1.00;;;;;;4442147;28;659092;-72
2021/11/25 09:11:00;;;;;;;35.17;17.23;;;7.60;1.00;;;;;;4457314;28;657280;-71
2021/11/25 09:13:47;;;;;;;34.63;17.60;;;7.40;1.00;;;;;;4436840;28;659762;-72
2021/11/25 09:16:35;;;;;;;37.00;17.80;;;7.40;1.00;;;;;;4464259;28;657965;-71
2021/11/25 09:19:23;;;;;;;32.95;16.95;;;7.20;1.00;;;;;;4446986;28;658535;-72
2021/11/25 09:22:12;;;;;;;35.47;17.77;;;7.60;99.90;;;;;;4445058;28;657575;-72
2021/11/25 09:25:00;;;;;;;39.63;18.17;;;8.10;1.00;;;;;;4459443;28;658712;-71
2021/11/25 09:27:48;;;;;;;34.20;17.17;;;8.50;1.00;;;;;;4444903;28;658716;-71
2021/11/25 09:30:36;;;;;;;36.77;17.53;;;8.20;1.00;;;;;;4442828;28;659575;-71
2021/11/25 09:33:23;;;;;;;37.40;17.77;;;7.70;1.00;;;;;;4465577;28;658410;-70
2021/11/25 09:36:11;;;;;;;37.10;18.43;;;7.80;1.00;;;;;;4443590;28;657543;-71
2021/11/25 09:39:00;;;;;;;35.40;18.27;;;8.10;1.00;;;;;;4460241;28;658307;-71
2021/11/25 09:41:49;;;;;;;32.27;17.90;;;8.30;99.90;;;;;;4439000;28;657978;-71
2021/11/25 09:44:36;;;;;;;37.03;19.50;;;8.40;99.90;;;;;;4439756;28;660562;-71
2021/11/25 09:47:26;;;;;;;37.40;19.63;;;8.30;99.90;;;;;;4462967;28;659668;-70
2021/11/25 09:50:13;;;;;;;33.50;17.90;;;8.70;1.00;;;;;;4435737;28;659124;-71
2021/11/25 09:53:02;;;;;;;35.30;18.90;;;9.40;99.90;;;;;;4444786;28;657579;-71
2021/11/25 09:55:53;;;;;;;36.23;18.97;;;9.80;99.90;;;;;;4451250;28;658769;-71
2021/11/25 09:58:41;;;;;;;35.53;19.43;;;10.40;1.00;;;;;;4444311;28;660258;-71
2021/11/25 10:01:28;;;;;;;36.87;19.50;;;10.40;1.00;;;;;;4460349;28;659066;-71
2021/11/25 10:04:16;;;;;;;40.97;20.80;;;11.00;1.00;;;;;;4439582;28;659575;-71
2021/11/25 10:07:04;;;;;;;36.20;19.87;;;11.80;1.00;;;;;;4457967;28;660322;-71
2021/11/25 10:09:52;;;;;;;35.17;18.57;;;12.50;1.00;;;;;;4438872;28;658169;-71
2021/11/25 10:12:42;;;;;;;35.80;19.23;;;12.80;99.90;;;;;;4454984;28;658598;-71
2021/11/25 10:15:32;;;;;;;34.93;18.67;;;13.10;99.90;;;;;;4435616;28;659572;-71
2021/11/25 10:18:21;;;;;;;29.50;18.13;;;13.80;99.90;;;;;;4425175;28;659600;-71
2021/11/25 10:21:10;;;;;;;28.23;17.13;;;14.60;99.90;;;;;;4457385;28;660378;-71
2021/11/25 10:23:58;;;;;;;25.67;17.13;;;14.70;1.00;;;;;;4434957;28;660173;-71
2021/11/25 10:26:46;;;;;;;29.30;16.55;;;15.00;1.00;;;;;;4438208;28;659118;-71
2021/11/25 10:29:35;;;;;;;30.38;17.10;;;15.50;1.00;;;;;;4452453;28;658357;-71
2021/11/25 10:32:23;;;;;;;29.15;17.10;;;15.30;1.00;;;;;;4434903;28;659386;-71
2021/11/25 10:35:24;;;;;;;28.23;16.65;;;15.70;1.00;;;;;;4435533;28;658863;-71
2021/11/25 10:38:24;;;;;;;26.33;15.30;;;16.50;1.00;;;;;;4409544;28;659356;-70
2021/11/25 10:41:14;;;;;;;28.90;15.43;;;16.70;1.00;;;;;;4435904;28;659007;-71
2021/11/25 10:44:19;;;;;;;22.38;13.60;;;16.90;1.00;;;;;;4435517;28;658976;-71
2021/11/25 10:47:09;;;;;;;23.77;14.05;;;17.00;1.00;;;;;;4435772;28;658518;-71
2021/11/25 10:49:58;;;;;;;24.90;13.50;;;17.40;1.00;;;;;;4434524;28;658857;-71
2021/11/25 10:52:48;;;;;;;26.13;14.38;;;17.00;1.00;;;;;;4442925;28;659128;-71
2021/11/25 10:55:37;;;;;;;21.30;13.05;;;16.80;1.00;;;;;;4438487;28;658899;-71
2021/11/25 10:58:26;;;;;;;21.52;12.25;;;16.40;1.00;;;;;;4454391;28;658778;-71
2021/11/25 11:01:13;;;;;;;17.10;11.35;;;16.70;1.00;;;;;;4455037;28;659614;-71
2021/11/25 11:04:03;;;;;;;20.80;11.65;;;16.60;1.00;;;;;;4438467;28;659127;-71
2021/11/25 11:06:51;;;;;;;15.45;10.10;;;17.00;1.00;;;;;;4444389;28;660717;-72
2021/11/25 11:09:39;;;;;;;19.17;11.07;;;17.50;1.00;;;;;;4465729;28;659511;-71
2021/11/25 11:12:32;;;;;;;19.73;11.25;;;17.70;1.00;;;;;;4442206;28;659693;-71
2021/11/25 11:15:33;;;;;;;19.85;12.02;;;17.10;1.00;;;;;;4438876;28;658803;-71
2021/11/25 11:18:47;;;;;;;22.00;13.00;;;16.90;1.00;;;;;;4422929;28;658863;-72
2021/11/25 11:21:37;;;;;;;22.77;12.82;;;17.10;1.00;;;;;;4433709;28;658448;-72
2021/11/25 11:24:26;;;;;;;21.08;13.00;;;17.60;1.00;;;;;;4432084;28;658435;-71
2021/11/25 11:27:15;;;;;;;21.53;12.93;;;18.10;1.00;;;;;;4434078;28;659250;-72
2021/11/25 11:30:02;;;;;;;22.65;12.75;;;18.60;1.00;;;;;;4438743;28;659592;-72
2021/11/25 11:32:51;;;;;;;22.00;12.15;;;19.20;1.00;;;;;;4455604;28;658427;-72
2021/11/25 11:35:39;;;;;;;21.55;12.73;;;19.40;1.00;;;;;;4457734;28;659321;-72
2021/11/25 11:38:31;;;;;;;19.85;11.98;;;19.60;1.00;;;;;;4443054;28;658489;-71
2021/11/25 11:41:19;;;;;;;18.50;11.60;;;19.50;1.00;;;;;;4431936;28;658906;-72
2021/11/25 11:44:07;;;;;;;18.88;11.40;;;19.60;1.00;;;;;;4441973;28;658811;-72
2021/11/25 11:47:01;;;;;;;21.93;12.23;;;19.60;1.00;;;;;;4461137;28;659311;-71
2021/11/25 11:49:49;;;;;;;20.60;12.93;;;19.70;1.00;;;;;;4433876;28;658995;-72
2021/11/25 11:52:36;;;;;;;20.92;12.52;;;20.10;1.00;;;;;;4437586;28;658536;-72
2021/11/25 11:55:37;;;;;;;24.02;13.93;;;20.10;1.00;;;;;;4455601;28;659638;-72
2021/11/25 11:58:28;;;;;;;22.08;12.32;;;20.00;1.00;;;;;;4454195;28;659114;-71
2021/11/25 12:01:25;;;;;;;20.13;13.05;;;19.50;1.00;;;;;;4437600;28;658903;-72
2021/11/25 12:04:15;;;;;;;24.57;14.13;;;19.70;1.00;;;;;;4414883;28;659317;-71
2021/11/25 12:07:02;;;;;;;22.55;13.65;;;19.60;1.00;;;;;;4431648;28;660159;-72
2021/11/25 12:09:53;;;;;;;28.90;16.50;;;19.30;1.00;;;;;;4452814;28;658866;-71
2021/11/25 12:12:51;;;;;;;25.13;13.98;;;19.20;1.00;;;;;;4438325;28;661133;-72
2021/11/25 12:15:38;;;;;;;23.58;14.15;;;19.60;1.00;;;;;;4436108;28;659197;-72
2021/11/25 12:18:31;;;;;;;25.52;14.40;;;19.30;1.00;;;;;;4435559;28;658831;-72
2021/11/25 12:21:27;;;;;;;27.02;15.27;;;19.40;1.00;;;;;;4432888;28;658510;-71
2021/11/25 12:24:25;;;;;;;26.48;14.93;;;19.50;1.00;;;;;;4436943;28;658974;-72
2021/11/25 12:27:18;;;;;;;27.77;14.85;;;18.90;1.00;;;;;;4410459;28;659801;-71
2021/11/25 12:30:12;;;;;;;25.23;15.20;;;17.80;1.00;;;;;;4410352;28;659164;-72
2021/11/25 12:33:00;;;;;;;29.13;14.80;;;18.30;1.00;;;;;;4435628;28;660357;-71
2021/11/25 12:35:48;;;;;;;28.70;15.57;;;19.00;1.00;;;;;;4438528;28;658947;-71
2021/11/25 12:38:37;;;;;;;25.67;15.57;;;19.50;1.00;;;;;;4436487;28;658723;-71
2021/11/25 12:41:24;;;;;;;27.97;15.80;;;19.60;1.00;;;;;;4460109;28;658674;-71
2021/11/25 12:44:12;;;;;;;27.07;15.60;;;18.30;1.00;;;;;;4438955;28;659866;-71
2021/11/25 12:47:01;;;;;;;32.37;17.60;;;16.80;1.00;;;;;;4459061;28;658738;-71
2021/11/25 12:49:49;;;;;;;34.53;16.83;;;15.80;1.00;;;;;;4436237;28;659525;-72
2021/11/25 12:52:37;;;;;;;31.00;16.37;;;15.40;1.00;;;;;;4434545;28;661718;-71
2021/11/25 12:55:25;;;;;;;34.43;16.13;;;15.80;1.00;;;;;;4455779;28;658889;-71
2021/11/25 12:58:12;;;;;;;28.60;16.87;;;15.10;1.00;;;;;;4436945;28;659170;-71
2021/11/25 13:01:01;;;;;;;32.40;17.97;;;14.20;1.00;;;;;;4451959;28;658494;-71
2021/11/25 13:03:58;;;;;;;33.13;18.30;;;13.20;1.00;;;;;;4463744;28;659255;-71
2021/11/25 13:06:48;;;;;;;37.03;18.03;;;12.30;1.00;;;;;;4419120;28;659644;-71
2021/11/25 13:09:36;;;;;;;38.53;18.37;;;11.60;1.00;;;;;;4441012;28;659090;-71
2021/11/25 13:12:24;;;;;;;34.40;18.23;;;11.00;1.00;;;;;;4462742;28;659682;-71
2021/11/25 13:15:12;;;;;;;36.40;17.70;;;10.50;1.00;;;;;;4439520;28;660306;-72
2021/11/25 13:18:02;;;;;;;41.47;19.77;;;10.00;1.00;;;;;;4454646;28;658838;-72
2021/11/25 13:20:53;;;;;;;55.00;24.73;;;9.60;1.00;;;;;;4456119;28;658721;-73
2021/11/25 13:23:41;;;;;;;47.10;22.23;;;9.20;1.00;;;;;;4411022;28;657666;-72
2021/11/25 13:26:41;;;;;;;45.73;21.23;;;8.90;1.00;;;;;;4459090;28;657554;-72
2021/11/25 13:29:34;;;;;;;51.23;24.23;;;8.70;99.90;;;;;;4433347;28;657635;-72
2021/11/25 13:32:22;;;;;;;58.20;27.17;;;8.60;99.90;;;;;;4432042;28;658475;-72
2021/11/25 13:35:13;;;;;;;50.00;22.80;;;8.40;99.90;;;;;;4461722;28;658508;-72
2021/11/25 13:38:02;;;;;;;53.77;24.70;;;8.20;1.00;;;;;;4415920;28;658881;-72
2021/11/25 13:40:51;;;;;;;53.70;23.80;;;8.10;1.00;;;;;;4456100;28;657630;-72
2021/11/25 13:43:47;;;;;;;46.60;21.10;;;7.90;94.80;;;;;;4459698;28;658189;-72
2021/11/25 13:46:37;;;;;;;49.63;22.70;;;7.70;73.10;;;;;;4427741;28;658567;-72
2021/11/25 13:49:30;;;;;;;44.58;20.83;;;7.60;1.00;;;;;;4457586;28;659968;-72
2021/11/25 13:52:17;;;;;;;48.30;21.10;;;7.50;99.90;;;;;;4413233;28;657631;-72
2021/11/25 13:55:09;;;;;;;52.07;22.83;;;7.40;99.90;;;;;;4454883;28;658979;-72
2021/11/25 13:57:58;;;;;;;51.30;24.30;;;7.30;37.50;;;;;;4441170;28;658704;-72
2021/11/25 14:00:49;;;;;;;53.90;24.17;;;7.20;1.00;;;;;;4441656;28;658890;-72
2021/11/25 14:03:37;;;;;;;67.37;26.77;;;7.00;1.00;;;;;;4437985;28;657536;-72
2021/11/25 14:06:28;;;;;;;66.80;27.75;;;7.00;99.90;;;;;;4456622;28;657598;-72
2021/11/25 14:09:17;;;;;;;95.03;37.33;;;6.90;99.90;;;;;;4412160;28;658686;-72
2021/11/25 14:12:08;;;;;;;111.23;43.93;;;6.80;1.00;;;;;;4454477;28;658413;-72
2021/11/25 14:14:56;;;;;;;91.47;37.00;;;6.80;1.00;;;;;;4439310;28;658687;-72